• Join FlightAware (Why Join?)
  • Login
  • US Flag 
07:48AM EDT


 

Airport Tracker/Info


-or-


 

Live Flight TrackerFlight Track Log ✈ SWA1040 ✈ 27-Apr-2013 ✈ KMCO - KALB

Flight Track Log - Related Links

Times and Time Zones

All times are in EDT time to prevent confusion due to time zone crossing. See the SWA1040 flight status page for this flight to view local times or setup timezone preferences in your user account.

Time Position Orientation Groundspeed Altitude Reporting Facility
EDT Latitude Longitude Course Direction KTS MPH feet Rate Location/Type
09:21AM 28.4333 -81.3000 347° North 161 185 600  Level Orlando TRACON
09:23AM 28.5431 -81.3281 347° North 232 267 4,800 2,520 Climbing Jacksonville Center
09:24AM 28.6164 -81.3342 356° North 243 280 8,400 3,060 Climbing Jacksonville Center
09:25AM 28.6958 -81.3447 353° North 265 305 11,000 2,640 Climbing Jacksonville Center
09:26AM 28.7939 -81.3575 353° North 310 357 13,700 3,120 Climbing Jacksonville Center
09:27AM 28.9025 -81.3675 355° North 345 397 17,300 3,240 Climbing Jacksonville Center
09:28AM 29.0050 -81.3778 355° North 360 414 20,200 2,640 Climbing Jacksonville Center
09:29AM 29.1136 -81.3906 354° North 374 430 22,600 2,160 Climbing Jacksonville Center
09:30AM 29.2267 -81.4031 354° North 386 444 24,600 2,100 Climbing Jacksonville Center
09:31AM 29.3456 -81.4156 355° North 412 474 26,800 2,040 Climbing Jacksonville Center
09:32AM 29.4669 -81.4281 355° North 426 490 28,700 1,920 Climbing Jacksonville Center
09:33AM 29.5881 -81.4406 355° North 431 496 30,700 2,280 Climbing Jacksonville Center
09:34AM 29.7072 -81.4483 357° North 431 496 33,300 2,100 Climbing Jacksonville Center
09:35AM 29.8239 -81.4347 North 412 474 35,000 1,560 Climbing Jacksonville Center
09:36AM 29.9361 -81.3778 24° Northeast 412 474 36,500 1,380 Climbing Jacksonville Center
09:37AM 30.0397 -81.3258 23° Northeast 427 491 37,800 1,200 Climbing Jacksonville Center
09:38AM 30.1478 -81.2711 24° Northeast 427 491 38,900 600 Climbing Jacksonville Center
09:39AM 30.2617 -81.2139 23° Northeast 432 497 39,000  Climbing Jacksonville Center
09:40AM 30.3736 -81.1589 23° Northeast 432 497 39,000  Level Jacksonville Center
09:41AM 30.4858 -81.1039 23° Northeast 432 497 39,000  Level Jacksonville Center
09:42AM 30.5956 -81.0511 22° Northeast 432 497 39,000  Level Jacksonville Center
09:43AM 30.7075 -80.9936 24° Northeast 432 497 39,000  Level Jacksonville Center
09:44AM 30.8153 -80.9406 23° Northeast 427 491 39,000  Level Jacksonville Center
09:45AM 30.9253 -80.8897 22° Northeast 427 491 39,000  Level Jacksonville Center
09:46AM 31.0350 -80.8317 24° Northeast 427 491 39,000  Level Jacksonville Center
09:47AM 31.1425 -80.7808 22° Northeast 422 486 39,000  Level Jacksonville Center
09:48AM 31.2503 -80.7250 24° Northeast 416 479 39,000  Level Jacksonville Center
09:49AM 31.3600 -80.6689 24° Northeast 416 479 39,000  Level Jacksonville Center
09:50AM 31.4739 -80.6175 21° North 416 479 39,000  Level Jacksonville Center
09:51AM 31.5814 -80.5589 25° Northeast 421 484 39,000  Level Jacksonville Center
09:52AM 31.7056 -80.4969 23° Northeast 427 491 39,000  Level Jacksonville Center
09:53AM 31.7944 -80.4508 24° Northeast 427 491 39,000  Level Jacksonville Center
09:54AM 31.9142 -80.3889 24° Northeast 427 491 39,000  Level Jacksonville Center
09:55AM 32.0258 -80.3319 23° Northeast 433 498 39,000  Level Jacksonville Center
09:56AM 32.1375 -80.2747 23° Northeast 433 498 39,000  Level Jacksonville Center
09:57AM 32.2489 -80.2175 23° Northeast 433 498 39,000  Level Jacksonville Center
09:58AM 32.3606 -80.1603 23° Northeast 433 498 39,000  Level Jacksonville Center
09:59AM 32.4739 -80.1025 23° Northeast 433 498 39,000  Level Jacksonville Center
10:00AM 32.5833 -80.0425 25° Northeast 433 498 39,000  Level Jacksonville Center
10:01AM 32.6947 -79.9872 23° Northeast 433 498 39,000  Level Jacksonville Center
10:02AM 32.8183 -79.9214 24° Northeast 433 498 39,000  Level Jacksonville Center
10:03AM 32.9278 -79.8608 25° Northeast 433 498 39,000  Level Jacksonville Center
10:04AM 33.0411 -79.8025 23° Northeast 433 498 39,000  Level Jacksonville Center
10:05AM 33.1544 -79.7417 24° Northeast 433 498 39,000  Level Jacksonville Center
10:06AM 33.2656 -79.6856 23° Northeast 433 498 39,000  Level Jacksonville Center
10:07AM 33.3767 -79.6267 24° Northeast 433 498 39,000  Level Jacksonville Center
10:08AM 33.4881 -79.5678 24° Northeast 433 498 39,000  Level Jacksonville Center
10:09AM 33.5992 -79.5114 23° Northeast 433 498 39,000  Level Jacksonville Center
10:10AM 33.7081 -79.4522 24° Northeast 433 498 39,000  Level Jacksonville Center
10:11AM 33.7967 -79.4039 24° Northeast 416 479 39,000  Level Jacksonville Center
10:14AM 34.0656 -79.2619 24° Northeast 406 467 39,000  Level Washington Center
10:15AM 34.1717 -79.1964 27° Northeast 406 467 39,000  Level Washington Center
10:16AM 34.2656 -79.1275 31° Northeast 425 489 39,000  Level Washington Center
10:17AM 34.3697 -79.0617 28° Northeast 430 495 39,000  Level Washington Center
10:18AM 34.4825 -78.9858 29° Northeast 425 489 39,000  Level Washington Center
10:19AM 34.5764 -78.9164 31° Northeast 431 496 39,000  Level Washington Center
10:20AM 34.6783 -78.8450 30° Northeast 431 496 39,000  Level Washington Center
10:21AM 34.7847 -78.7708 30° Northeast 431 496 39,000  Level Washington Center
10:22AM 34.8867 -78.6989 30° Northeast 431 496 39,000  Level Washington Center
10:23AM 34.9908 -78.6267 30° Northeast 431 496 39,000  Level Washington Center
10:24AM 35.0908 -78.5542 31° Northeast 431 496 39,000  Level Washington Center
10:25AM 35.1969 -78.4819 29° Northeast 431 496 39,000  Level Washington Center
10:26AM 35.2967 -78.4067 32° Northeast 431 496 39,000  Level Washington Center
10:27AM 35.4006 -78.3339 30° Northeast 431 496 39,000  Level Washington Center
10:28AM 35.5067 -78.2608 29° Northeast 431 496 39,000  Level Washington Center
10:29AM 35.6083 -78.1903 29° Northeast 431 496 39,000  Level Washington Center
10:30AM 35.7122 -78.1169 30° Northeast 426 490 39,000  Level Washington Center
10:31AM 35.8158 -78.0433 30° Northeast 426 490 39,000  Level Washington Center
10:32AM 35.9217 -77.9672 30° Northeast 426 490 39,000  Level Washington Center
10:33AM 36.0233 -77.8956 30° Northeast 426 490 39,000  Level Washington Center
10:34AM 36.1292 -77.8217 29° Northeast 426 490 39,000  Level Washington Center
10:35AM 36.2286 -77.7472 31° Northeast 426 490 39,000  Level Washington Center
10:36AM 36.3319 -77.6728 30° Northeast 426 490 39,000  Level Washington Center
10:37AM 36.4400 -77.5878 32° Northeast 426 490 39,000  Level Washington Center
10:38AM 36.5433 -77.5156 29° Northeast 414 476 39,000  Level Washington Center
10:39AM 36.6447 -77.4403 31° Northeast 414 476 39,000  Level Washington Center
10:40AM 36.7458 -77.3650 31° Northeast 419 482 39,000  Level Washington Center
10:41AM 36.8450 -77.2892 31° Northeast 419 482 39,000  Level Washington Center
10:42AM 36.9419 -77.2186 30° Northeast 429 494 39,000  Level Washington Center
10:43AM 37.0431 -77.1453 30° Northeast 423 487 39,000  Level Washington Center
10:44AM 37.1442 -77.0692 31° Northeast 423 487 39,000  Level Washington Center
10:45AM 37.2558 -76.9853 31° Northeast 423 487 39,000  Level Washington Center
10:46AM 37.3589 -76.9086 31° Northeast 423 487 39,000  Level Washington Center
10:47AM 37.4619 -76.8267 32° Northeast 430 495 39,000  Level Washington Center
10:48AM 37.5650 -76.7497 31° Northeast 430 495 39,000  Level Washington Center
10:49AM 37.6656 -76.6753 30° Northeast 425 489 39,000  Level Washington Center
10:50AM 37.7686 -76.5981 31° Northeast 425 489 39,000  Level Washington Center
10:51AM 37.8714 -76.5178 32° Northeast 425 489 39,000  Level Washington Center
10:52AM 37.9719 -76.4425 31° Northeast 425 489 39,000  Level Washington Center
10:53AM 38.0789 -76.3619 31° Northeast 425 489 39,000  Level Washington Center
10:54AM 38.1794 -76.2811 32° Northeast 430 495 39,000  Level Washington Center
10:55AM 38.2822 -76.2028 31° Northeast 424 488 39,000  Level Washington Center
10:56AM 38.3825 -76.1214 32° Northeast 424 488 39,000  Level Washington Center
10:57AM 38.4872 -76.0425 31° Northeast 429 494 39,000  Level Washington Center
10:58AM 38.5833 -75.9742 29° Northeast 429 494 39,000  Level Washington Center
10:59AM 38.6878 -75.8922 31° Northeast 429 494 39,000  Level Washington Center
11:00AM 38.7881 -75.8075 33° Northeast 429 494 39,000  Level Washington Center
11:01AM 38.8925 -75.7278 31° Northeast 429 494 39,000  Level Washington Center
11:02AM 38.9986 -75.6478 30° Northeast 429 494 39,000  Level Washington Center
11:03AM 39.1008 -75.5647 32° Northeast 429 494 39,000  Level Washington Center
11:04AM 39.2050 -75.4792 32° Northeast 435 501 39,000  Level Washington Center
11:05AM 39.3069 -75.3958 32° Northeast 435 501 39,000  Level Washington Center
11:06AM 39.4153 -75.3122 31° Northeast 435 501 39,000  Level Washington Center
11:07AM 39.5172 -75.2256 33° Northeast 435 501 39,000  Level Washington Center
11:09AM 39.7100 -75.0722 31° Northeast 446 513 39,000  Level New York Center
11:10AM 39.8153 -74.9842 33° Northeast 446 513 39,000  Level New York Center
11:11AM 39.9142 -74.8981 34° Northeast 446 513 39,000  Level New York Center
11:12AM 40.0075 -74.7897 42° Northeast 446 513 39,000  Level New York Center
11:13AM 40.1117 -74.6711 41° Northeast 441 507 39,000  Level New York Center
11:14AM 40.1942 -74.5725 42° Northeast 441 507 39,000  Level New York Center
11:15AM 40.3000 -74.4475 42° Northeast 446 513 39,000 -1,200 Level New York Center
11:16AM 40.3911 -74.3381 42° Northeast 451 519 36,700 -2,520 Descending New York Center
11:17AM 40.4861 -74.2256 42° Northeast 451 519 34,100 -2,340 Descending New York Center
11:18AM 40.5767 -74.1208 41° Northeast 446 513 32,000 -2,040 Descending New York Center
11:19AM 40.7294 -73.9381 42° Northeast 421 484 28,400 -2,040 Descending Boston Center
11:20AM 40.8100 -73.8414 42° Northeast 401 461 26,400 -1,980 Descending Boston Center
11:21AM 40.8881 -73.7469 42° Northeast 388 447 24,500 -1,260 Descending Boston Center
11:22AM 40.9581 -73.6547 45° Northeast 370 426 23,900 -780 Descending Boston Center
11:23AM 41.0544 -73.6044 21° North 359 413 23,000 -720 Descending Boston Center
11:24AM 41.1486 -73.5592 20° North 352 405 22,500 -780 Descending Boston Center
11:25AM 41.2406 -73.5167 19° North 352 405 21,500 -1,020 Descending Boston Center
11:26AM 41.3328 -73.4850 14° North 347 399 20,500 -1,020 Descending Boston Center
11:27AM 41.4286 -73.4894 358° North 337 388 19,500 -1,020 Descending Boston Center
11:28AM 41.5181 -73.4964 357° North 327 376 18,500 -780 Descending Boston Center
11:29AM 41.6014 -73.4978 359° North 332 382 18,000 -780 Descending Boston Center
11:30AM 41.6994 -73.5022 358° North 321 369 17,000 -660 Descending Boston Center
11:31AM 41.7783 -73.5092 356° North 316 364 16,700 -720 Descending Boston Center
11:32AM 41.8742 -73.5136 358° North 310 357 15,600 -1,260 Descending Boston Center
11:33AM 41.9514 -73.5175 358° North 310 357 14,200 -1,740 Descending Boston Center
11:34AM 42.0431 -73.5219 358° North 310 357 12,200 -1,620 Descending Boston Center
11:35AM 42.1181 -73.5344 353° North 305 351 11,000 -600 Descending Boston Center
11:36AM 42.1864 -73.5692 339° North 284 327 11,000 -840 Level Boston Center
11:37AM 42.2631 -73.6072 340° North 268 308 9,400 -1,500 Descending Boston Center
11:38AM 42.3336 -73.6422 340° North 266 306 8,100 -1,380 Descending Boston Center
11:39AM 42.4019 -73.6744 341° North 260 299 6,700 -1,560 Descending Boston Center
11:40AM 42.4600 -73.7036 340° North 255 293 5,000 -1,560 Descending Boston Center
11:41AM 42.5347 -73.7419 339° North 250 288 3,600 -960 Descending Boston Center
11:42AM 42.5886 -73.7656 342° North 237 273 3,100 -480 Descending Boston Center
11:43AM 42.6464 -73.8033 334° Northwest 232 267 2,700 -840 Descending Boston Center
11:44AM 42.6611 -73.8036 359° North 165 190 2,000 20,280 Descending Boston Center
11:44AM 42.7044 -73.8386 329° Northwest 232 267 23,000 -960 Climbing Boston Center
11:45AM 42.7028 -73.8075 94° East 130 150 1,000 -23,100 Descending Boston Center
11:45AM 42.7236 -73.8081 359° North 130 150 700 14,160 Descending Boston Center
11:46AM 42.8181 -73.9119 321° Northwest 232 267 23,000 10,920 Climbing Boston Center
11:47AM 42.8511 -73.9356 332° Northwest 232 267 23,000  Level Boston Center
11:48AM 42.8511 -73.9356 71° East 232 267 23,000  Level Boston Center